Champion — WCZ7631 — position and weather

sailwx.info

Track history (hours):
 
Tides and Currents Weather Stations Pressure Air Temp Water Temp Dewpoint Dewpoint Depression Visibility Wind Speed Wind Dir Waves Ship Positions

Champion

Owner: MC CULLEY MARINE SERVICES INC, FORT PIERCE, FL. More information available from US FCC via Universal Licensing System and Coast Guard Vessel Documentation Center.

Last reported at 2016-Feb-10 14:11 UTC. Time now 2016-Feb-14 12:40 UTC.
Position N 26°43' W 082°21'.

Length 20 m; draft 1.7 m.

Type: Towing. MMSI: 367005250.

Date/timePositionNaut miles runAvg speedWind from/ knotsBaromVisibWave heightAir tempDewpointWater temp
2016-Feb-10 14:11N 26°43' W 082°21'3 5.4
2016-Feb-10 13:33N 26°42' W 082°18'7 4.9
2016-Feb-10 12:11N 26°48' W 082°15'0 0.0
2016-Feb-10 09:22N 26°48' W 082°15'0 0.0
2016-Feb-10 08:33N 26°48' W 082°15'0 0.0
2016-Feb-10 07:33N 26°48' W 082°15'0 0.0
2016-Feb-10 06:33N 26°48' W 082°15'0 0.0
2016-Feb-10 05:34N 26°48' W 082°15'0 0.0
2016-Feb-10 04:30N 26°48' W 082°15'0 0.0
2016-Feb-10 03:29N 26°48' W 082°15'0 0.1
2016-Feb-10 02:31N 26°48' W 082°15'2 1.6
2016-Feb-10 01:33N 26°49' W 082°16'6 6.4
2016-Feb-10 00:33N 26°43' W 082°15'7 6.5
2016-Feb-09 23:34N 26°37' W 082°12'7 6.7
2016-Feb-09 22:34N 26°31' W 082°09'5 5.0
2016-Feb-09 21:33N 26°29' W 082°04'6 6.5
2016-Feb-09 20:33N 26°32' W 081°57'7 6.5
2016-Feb-09 19:33N 26°38' W 081°54'2 1.7
2016-Feb-09 18:33N 26°39' W 081°52'0 0.1
2016-Feb-09 17:33N 26°39' W 081°52'4 4.3
2016-Feb-09 16:34N 26°42' W 081°49'7 6.3
2016-Feb-09 15:31N 26°43' W 081°42'  
Track history (hours):
 
Tides and Currents Weather Stations Pressure Air Temp Water Temp Dewpoint Dewpoint Depression Visibility Wind Speed Wind Dir Waves Ship Positions

Champion

Owner: MC CULLEY MARINE SERVICES INC, FORT PIERCE, FL. More information available from US FCC via Universal Licensing System and Coast Guard Vessel Documentation Center.

Last reported at 2016-Feb-10 14:11 UTC. Time now 2016-Feb-14 12:40 UTC.
Position N 26°43' W 082°21'.

Length 20 m; draft 1.7 m.

Type: Towing. MMSI: 367005250.

Date/timePositionNaut miles runAvg speedWind from/ knotsBaromVisibWave heightAir tempDewpointWater temp
2016-Feb-10 14:11N 26°43' W 082°21'3 5.4
2016-Feb-10 13:33N 26°42' W 082°18'7 4.9
2016-Feb-10 12:11N 26°48' W 082°15'0 0.0
2016-Feb-10 09:22N 26°48' W 082°15'0 0.0
2016-Feb-10 08:33N 26°48' W 082°15'0 0.0
2016-Feb-10 07:33N 26°48' W 082°15'0 0.0
2016-Feb-10 06:33N 26°48' W 082°15'0 0.0
2016-Feb-10 05:34N 26°48' W 082°15'0 0.0
2016-Feb-10 04:30N 26°48' W 082°15'0 0.0
2016-Feb-10 03:29N 26°48' W 082°15'0 0.1
2016-Feb-10 02:31N 26°48' W 082°15'2 1.6
2016-Feb-10 01:33N 26°49' W 082°16'6 6.4
2016-Feb-10 00:33N 26°43' W 082°15'7 6.5
2016-Feb-09 23:34N 26°37' W 082°12'7 6.7
2016-Feb-09 22:34N 26°31' W 082°09'5 5.0
2016-Feb-09 21:33N 26°29' W 082°04'6 6.5
2016-Feb-09 20:33N 26°32' W 081°57'7 6.5
2016-Feb-09 19:33N 26°38' W 081°54'2 1.7
2016-Feb-09 18:33N 26°39' W 081°52'0 0.1
2016-Feb-09 17:33N 26°39' W 081°52'4 4.3
2016-Feb-09 16:34N 26°42' W 081°49'7 6.3
2016-Feb-09 15:31N 26°43' W 081°42'  

Dump ship's entire track history